sensor_id;sensor_type;location;lat;lon;timestamp;pressure;altitude;pressure_sealevel;temperature;humidity
15050;BME280;7622;42.724;23.250;2023-03-01T00:00:06;95146.91;;;6.16;100.00
15050;BME280;7622;42.724;23.250;2023-03-01T00:02:35;95142.47;;;6.18;100.00
15050;BME280;7622;42.724;23.250;2023-03-01T00:05:03;95140.94;;;6.15;100.00
15050;BME280;7622;42.724;23.250;2023-03-01T00:07:30;95148.06;;;6.12;100.00
15050;BME280;7622;42.724;23.250;2023-03-01T00:09:57;95141.03;;;6.14;100.00
15050;BME280;7622;42.724;23.250;2023-03-01T00:12:23;95143.41;;;6.17;100.00
15050;BME280;7622;42.724;23.250;2023-03-01T00:14:50;95134.00;;;6.16;100.00
15050;BME280;7622;42.724;23.250;2023-03-01T00:17:18;95134.72;;;6.18;100.00
15050;BME280;7622;42.724;23.250;2023-03-01T00:19:45;95130.94;;;6.11;100.00
15050;BME280;7622;42.724;23.250;2023-03-01T00:22:12;95123.91;;;6.13;100.00
15050;BME280;7622;42.724;23.250;2023-03-01T00:24:39;95130.94;;;6.11;100.00
15050;BME280;7622;42.724;23.250;2023-03-01T00:27:06;95126.81;;;6.08;100.00
15050;BME280;7622;42.724;23.250;2023-03-01T00:29:33;95120.00;;;6.07;100.00
15050;BME280;7622;42.724;23.250;2023-03-01T00:31:59;95111.47;;;5.94;100.00
15050;BME280;7622;42.724;23.250;2023-03-01T00:34:27;95111.22;;;5.84;100.00
15050;BME280;7622;42.724;23.250;2023-03-01T00:36:54;95110.00;;;5.90;100.00
15050;BME280;7622;42.724;23.250;2023-03-01T00:39:31;95106.19;;;5.96;100.00
15050;BME280;7622;42.724;23.250;2023-03-01T00:41:58;95107.94;;;5.95;100.00
15050;BME280;7622;42.724;23.250;2023-03-01T00:44:25;95107.13;;;5.95;100.00
15050;BME280;7622;42.724;23.250;2023-03-01T00:46:53;95101.22;;;6.05;100.00
15050;BME280;7622;42.724;23.250;2023-03-01T00:49:20;95102.59;;;5.98;100.00
15050;BME280;7622;42.724;23.250;2023-03-01T00:51:50;95095.59;;;5.87;100.00
15050;BME280;7622;42.724;23.250;2023-03-01T00:54:17;95106.16;;;5.83;100.00
15050;BME280;7622;42.724;23.250;2023-03-01T00:56:44;95105.03;;;5.74;100.00
15050;BME280;7622;42.724;23.250;2023-03-01T00:59:11;95104.22;;;5.86;100.00
15050;BME280;7622;42.724;23.250;2023-03-01T01:01:38;95104.41;;;5.71;100.00
15050;BME280;7622;42.724;23.250;2023-03-01T01:04:06;95105.84;;;5.75;100.00
15050;BME280;7622;42.724;23.250;2023-03-01T01:06:35;95113.59;;;5.75;100.00
15050;BME280;7622;42.724;23.250;2023-03-01T01:09:06;95038.66;;;5.27;100.00
15050;BME280;7622;42.724;23.250;2023-03-01T01:11:33;95110.59;;;5.68;100.00
15050;BME280;7622;42.724;23.250;2023-03-01T01:14:02;95111.13;;;5.73;100.00
15050;BME280;7622;42.724;23.250;2023-03-01T01:16:29;95109.91;;;5.66;100.00
15050;BME280;7622;42.724;23.250;2023-03-01T01:18:57;95099.78;;;5.63;100.00
15050;BME280;7622;42.724;23.250;2023-03-01T01:21:24;95078.84;;;5.42;100.00
15050;BME280;7622;42.724;23.250;2023-03-01T01:23:52;95097.63;;;5.70;100.00
15050;BME280;7622;42.724;23.250;2023-03-01T01:26:22;95094.94;;;5.59;100.00
15050;BME280;7622;42.724;23.250;2023-03-01T01:28:50;95087.31;;;5.57;100.00
15050;BME280;7622;42.724;23.250;2023-03-01T01:31:18;95097.22;;;5.63;100.00
15050;BME280;7622;42.724;23.250;2023-03-01T01:33:45;95096.38;;;5.63;100.00
15050;BME280;7622;42.724;23.250;2023-03-01T01:36:12;95009.41;;;5.15;100.00
15050;BME280;7622;42.724;23.250;2023-03-01T01:38:39;95111.75;;;5.64;100.00
15050;BME280;7622;42.724;23.250;2023-03-01T01:41:08;95113.41;;;5.65;100.00
15050;BME280;7622;42.724;23.250;2023-03-01T01:43:40;95114.50;;;5.61;100.00
15050;BME280;7622;42.724;23.250;2023-03-01T01:46:15;95110.59;;;5.68;100.00
15050;BME280;7622;42.724;23.250;2023-03-01T01:48:49;95104.00;;;5.64;100.00
15050;BME280;7622;42.724;23.250;2023-03-01T01:51:21;95113.50;;;5.51;100.00
15050;BME280;7622;42.724;23.250;2023-03-01T01:53:53;95107.69;;;5.60;100.00
15050;BME280;7622;42.724;23.250;2023-03-01T01:56:24;95113.81;;;5.59;100.00
15050;BME280;7622;42.724;23.250;2023-03-01T01:58:54;95100.09;;;5.59;100.00
15050;BME280;7622;42.724;23.250;2023-03-01T02:01:22;95104.94;;;5.63;100.00
15050;BME280;7622;42.724;23.250;2023-03-01T02:03:49;95094.94;;;5.71;100.00
15050;BME280;7622;42.724;23.250;2023-03-01T02:06:20;95096.19;;;5.53;100.00
15050;BME280;7622;42.724;23.250;2023-03-01T02:08:49;95057.00;;;5.48;100.00
15050;BME280;7622;42.724;23.250;2023-03-01T02:11:19;95079.25;;;5.74;100.00
15050;BME280;7622;42.724;23.250;2023-03-01T02:13:47;95073.91;;;5.77;100.00
15050;BME280;7622;42.724;23.250;2023-03-01T02:16:16;95064.31;;;5.79;100.00
15050;BME280;7622;42.724;23.250;2023-03-01T02:18:44;95065.25;;;5.91;100.00
15050;BME280;7622;42.724;23.250;2023-03-01T02:21:20;95066.00;;;5.93;100.00
15050;BME280;7622;42.724;23.250;2023-03-01T02:23:53;95060.72;;;5.95;100.00
15050;BME280;7622;42.724;23.250;2023-03-01T02:26:26;95058.25;;;5.93;100.00
15050;BME280;7622;42.724;23.250;2023-03-01T02:28:58;95069.81;;;5.87;100.00
15050;BME280;7622;42.724;23.250;2023-03-01T02:31:25;95074.97;;;5.87;100.00
15050;BME280;7622;42.724;23.250;2023-03-01T02:34:13;95084.13;;;5.91;100.00
15050;BME280;7622;42.724;23.250;2023-03-01T02:36:44;95090.28;;;5.76;100.00
15050;BME280;7622;42.724;23.250;2023-03-01T02:39:15;95083.63;;;5.74;100.00
15050;BME280;7622;42.724;23.250;2023-03-01T02:41:46;95057.81;;;5.61;100.00
15050;BME280;7622;42.724;23.250;2023-03-01T02:44:15;95080.72;;;5.78;100.00
15050;BME280;7622;42.724;23.250;2023-03-01T02:46:43;95091.53;;;5.71;100.00
15050;BME280;7622;42.724;23.250;2023-03-01T02:49:23;95088.75;;;5.74;100.00
15050;BME280;7622;42.724;23.250;2023-03-01T02:52:09;95096.59;;;5.72;100.00
15050;BME280;7622;42.724;23.250;2023-03-01T02:54:42;95079.25;;;5.74;100.00
15050;BME280;7622;42.724;23.250;2023-03-01T02:57:13;95089.06;;;5.69;100.00
15050;BME280;7622;42.724;23.250;2023-03-01T02:59:42;95086.69;;;5.66;100.00
15050;BME280;7622;42.724;23.250;2023-03-01T03:02:19;95079.06;;;5.77;100.00
15050;BME280;7622;42.724;23.250;2023-03-01T03:05:02;95078.97;;;5.79;100.00
15050;BME280;7622;42.724;23.250;2023-03-01T03:07:32;95084.03;;;5.80;100.00
15050;BME280;7622;42.724;23.250;2023-03-01T03:09:59;95067.50;;;5.96;100.00
15050;BME280;7622;42.724;23.250;2023-03-01T03:12:26;95074.13;;;5.87;100.00
15050;BME280;7622;42.724;23.250;2023-03-01T03:14:54;95083.88;;;5.82;100.00
15050;BME280;7622;42.724;23.250;2023-03-01T03:17:21;95082.97;;;5.83;100.00
15050;BME280;7622;42.724;23.250;2023-03-01T03:19:48;95075.56;;;5.78;100.00
15050;BME280;7622;42.724;23.250;2023-03-01T03:22:15;95093.50;;;5.80;100.00
15050;BME280;7622;42.724;23.250;2023-03-01T03:24:42;95082.97;;;5.96;100.00
15050;BME280;7622;42.724;23.250;2023-03-01T03:27:09;95091.25;;;6.01;100.00
15050;BME280;7622;42.724;23.250;2023-03-01T03:29:36;95092.25;;;5.85;100.00
15050;BME280;7622;42.724;23.250;2023-03-01T03:32:04;95094.19;;;5.82;100.00
15050;BME280;7622;42.724;23.250;2023-03-01T03:34:31;95094.34;;;5.80;100.00
15050;BME280;7622;42.724;23.250;2023-03-01T03:36:58;95094.84;;;5.85;100.00
15050;BME280;7622;42.724;23.250;2023-03-01T03:39:25;95102.19;;;5.91;100.00
15050;BME280;7622;42.724;23.250;2023-03-01T03:41:52;95100.28;;;5.68;100.00
15050;BME280;7622;42.724;23.250;2023-03-01T03:44:20;95111.84;;;5.50;100.00
15050;BME280;7622;42.724;23.250;2023-03-01T03:46:47;95110.91;;;5.51;100.00
15050;BME280;7622;42.724;23.250;2023-03-01T03:49:15;95109.78;;;5.55;100.00
15050;BME280;7622;42.724;23.250;2023-03-01T03:51:42;95108.03;;;5.55;100.00
15050;BME280;7622;42.724;23.250;2023-03-01T03:54:08;95102.03;;;5.68;100.00
15050;BME280;7622;42.724;23.250;2023-03-01T03:56:35;95105.84;;;5.75;100.00
15050;BME280;7622;42.724;23.250;2023-03-01T03:59:02;95101.22;;;5.67;100.00
15050;BME280;7622;42.724;23.250;2023-03-01T04:01:29;95099.19;;;5.60;100.00
15050;BME280;7622;42.724;23.250;2023-03-01T04:03:56;95100.69;;;5.62;100.00
15050;BME280;7622;42.724;23.250;2023-03-01T04:06:30;95099.97;;;5.60;100.00
15050;BME280;7622;42.724;23.250;2023-03-01T04:08:57;95108.94;;;5.67;100.00
15050;BME280;7622;42.724;23.250;2023-03-01T04:11:26;95111.22;;;5.59;100.00
15050;BME280;7622;42.724;23.250;2023-03-01T04:13:55;95105.34;;;5.57;100.00
15050;BME280;7622;42.724;23.250;2023-03-01T04:16:23;95104.84;;;5.52;100.00
15050;BME280;7622;42.724;23.250;2023-03-01T04:18:50;95102.53;;;5.47;100.00
15050;BME280;7622;42.724;23.250;2023-03-01T04:21:17;95105.94;;;5.35;100.00
15050;BME280;7622;42.724;23.250;2023-03-01T04:23:47;95107.16;;;5.17;100.00
15050;BME280;7622;42.724;23.250;2023-03-01T04:26:18;95105.72;;;5.26;100.00
15050;BME280;7622;42.724;23.250;2023-03-01T04:28:46;95095.53;;;5.37;100.00
15050;BME280;7622;42.724;23.250;2023-03-01T04:31:16;95079.25;;;5.24;100.00
15050;BME280;7622;42.724;23.250;2023-03-01T04:33:45;95105.84;;;5.37;100.00
15050;BME280;7622;42.724;23.250;2023-03-01T04:36:13;95110.66;;;5.29;100.00
15050;BME280;7622;42.724;23.250;2023-03-01T04:38:41;95110.00;;;5.52;100.00
15050;BME280;7622;42.724;23.250;2023-03-01T04:41:11;95081.34;;;5.44;100.00
15050;BME280;7622;42.724;23.250;2023-03-01T04:43:38;95084.50;;;5.35;100.00
15050;BME280;7622;42.724;23.250;2023-03-01T04:46:06;95082.16;;;5.32;100.00
15050;BME280;7622;42.724;23.250;2023-03-01T04:48:34;95094.78;;;5.09;100.00
15050;BME280;7622;42.724;23.250;2023-03-01T04:51:02;95098.59;;;5.17;100.00
15050;BME280;7622;42.724;23.250;2023-03-01T04:53:29;95095.38;;;5.00;100.00
15050;BME280;7622;42.724;23.250;2023-03-01T04:55:56;95087.88;;;5.10;100.00
15050;BME280;7622;42.724;23.250;2023-03-01T04:58:27;95096.63;;;5.07;100.00
15050;BME280;7622;42.724;23.250;2023-03-01T05:00:54;95095.88;;;5.05;100.00
15050;BME280;7622;42.724;23.250;2023-03-01T05:03:21;95087.66;;;5.00;100.00
15050;BME280;7622;42.724;23.250;2023-03-01T05:05:50;95089.47;;;4.98;100.00
15050;BME280;7622;42.724;23.250;2023-03-01T05:08:17;95095.94;;;4.91;100.00
15050;BME280;7622;42.724;23.250;2023-03-01T05:10:48;95093.09;;;4.96;100.00
15050;BME280;7622;42.724;23.250;2023-03-01T05:13:15;95096.91;;;4.90;100.00
15050;BME280;7622;42.724;23.250;2023-03-01T05:15:48;95105.94;;;4.83;100.00
15050;BME280;7622;42.724;23.250;2023-03-01T05:18:19;95097.47;;;4.81;100.00
15050;BME280;7622;42.724;23.250;2023-03-01T05:20:46;95105.44;;;4.91;100.00
15050;BME280;7622;42.724;23.250;2023-03-01T05:23:13;95104.19;;;4.84;100.00
15050;BME280;7622;42.724;23.250;2023-03-01T05:25:40;95105.13;;;4.83;100.00
15050;BME280;7622;42.724;23.250;2023-03-01T05:28:11;95106.56;;;4.87;100.00
15050;BME280;7622;42.724;23.250;2023-03-01T05:30:40;95102.75;;;4.92;100.00
15050;BME280;7622;42.724;23.250;2023-03-01T05:33:10;95104.06;;;4.85;100.00
15050;BME280;7622;42.724;23.250;2023-03-01T05:35:39;95105.88;;;4.97;100.00
15050;BME280;7622;42.724;23.250;2023-03-01T05:38:07;95110.81;;;5.00;100.00
15050;BME280;7622;42.724;23.250;2023-03-01T05:40:34;95110.81;;;5.00;100.00
15050;BME280;7622;42.724;23.250;2023-03-01T05:43:01;95113.19;;;5.03;100.00
15050;BME280;7622;42.724;23.250;2023-03-01T05:45:31;95117.13;;;5.09;100.00
15050;BME280;7622;42.724;23.250;2023-03-01T05:47:58;95116.28;;;5.08;100.00
15050;BME280;7622;42.724;23.250;2023-03-01T05:50:28;95119.13;;;5.18;100.00
15050;BME280;7622;42.724;23.250;2023-03-01T05:52:58;95121.16;;;5.26;100.00
15050;BME280;7622;42.724;23.250;2023-03-01T05:55:25;95128.28;;;5.35;100.00
15050;BME280;7622;42.724;23.250;2023-03-01T05:57:52;95130.59;;;5.65;100.00
15050;BME280;7622;42.724;23.250;2023-03-01T06:00:21;95128.63;;;5.55;100.00
15050;BME280;7622;42.724;23.250;2023-03-01T06:02:48;95137.28;;;5.42;100.00
15050;BME280;7622;42.724;23.250;2023-03-01T06:05:17;95137.69;;;5.36;100.00
15050;BME280;7622;42.724;23.250;2023-03-01T06:07:46;95126.03;;;5.30;100.00
15050;BME280;7622;42.724;23.250;2023-03-01T06:10:13;95149.41;;;5.40;100.00
15050;BME280;7622;42.724;23.250;2023-03-01T06:12:42;95110.34;;;5.21;100.00
15050;BME280;7622;42.724;23.250;2023-03-01T06:15:10;95145.41;;;5.36;100.00
15050;BME280;7622;42.724;23.250;2023-03-01T06:17:39;95159.44;;;5.44;100.00
15050;BME280;7622;42.724;23.250;2023-03-01T06:20:09;95153.44;;;5.31;100.00
15050;BME280;7622;42.724;23.250;2023-03-01T06:22:36;95156.09;;;5.30;100.00
15050;BME280;7622;42.724;23.250;2023-03-01T06:25:05;95159.94;;;5.37;100.00
15050;BME280;7622;42.724;23.250;2023-03-01T06:27:32;95150.16;;;5.42;100.00
15050;BME280;7622;42.724;23.250;2023-03-01T06:29:59;95094.47;;;5.14;100.00
15050;BME280;7622;42.724;23.250;2023-03-01T06:32:26;95153.66;;;5.53;100.00
15050;BME280;7622;42.724;23.250;2023-03-01T06:34:53;95154.72;;;5.51;100.00
15050;BME280;7622;42.724;23.250;2023-03-01T06:37:20;95155.13;;;5.58;100.00
15050;BME280;7622;42.724;23.250;2023-03-01T06:39:47;95153.97;;;5.49;100.00
15050;BME280;7622;42.724;23.250;2023-03-01T06:42:16;95151.50;;;5.47;100.00
15050;BME280;7622;42.724;23.250;2023-03-01T06:44:44;95158.81;;;5.53;100.00
15050;BME280;7622;42.724;23.250;2023-03-01T06:47:11;95150.88;;;5.44;100.00
15050;BME280;7622;42.724;23.250;2023-03-01T06:49:38;95155.09;;;5.32;100.00
15050;BME280;7622;42.724;23.250;2023-03-01T06:52:05;95153.66;;;5.41;100.00
15050;BME280;7622;42.724;23.250;2023-03-01T06:54:31;95162.72;;;5.46;100.00
15050;BME280;7622;42.724;23.250;2023-03-01T06:56:58;95151.28;;;5.38;100.00
15050;BME280;7622;42.724;23.250;2023-03-01T06:59:28;95167.25;;;5.43;100.00
15050;BME280;7622;42.724;23.250;2023-03-01T07:01:58;95153.25;;;5.47;100.00
15050;BME280;7622;42.724;23.250;2023-03-01T07:04:27;95156.13;;;5.42;100.00
15050;BME280;7622;42.724;23.250;2023-03-01T07:06:56;95146.66;;;5.43;100.00
15050;BME280;7622;42.724;23.250;2023-03-01T07:09:23;95156.16;;;5.55;100.00
15050;BME280;7622;42.724;23.250;2023-03-01T07:11:50;95151.41;;;5.49;100.00
15050;BME280;7622;42.724;23.250;2023-03-01T07:14:17;95158.41;;;5.47;100.00
15050;BME280;7622;42.724;23.250;2023-03-01T07:16:46;95150.59;;;5.61;100.00
15050;BME280;7622;42.724;23.250;2023-03-01T07:19:13;95154.22;;;5.59;100.00
15050;BME280;7622;42.724;23.250;2023-03-01T07:21:40;95147.09;;;5.75;100.00
15050;BME280;7622;42.724;23.250;2023-03-01T07:24:07;95134.31;;;5.73;100.00
15050;BME280;7622;42.724;23.250;2023-03-01T07:26:34;95134.53;;;5.70;100.00
15050;BME280;7622;42.724;23.250;2023-03-01T07:29:01;95136.38;;;5.81;100.00
15050;BME280;7622;42.724;23.250;2023-03-01T07:31:28;95131.47;;;5.90;100.00
15050;BME280;7622;42.724;23.250;2023-03-01T07:33:56;95125.88;;;5.84;100.00
15050;BME280;7622;42.724;23.250;2023-03-01T07:36:24;95135.34;;;5.83;100.00
15050;BME280;7622;42.724;23.250;2023-03-01T07:38:51;95139.75;;;5.81;100.00
15050;BME280;7622;42.724;23.250;2023-03-01T07:41:18;95138.66;;;5.85;100.00
15050;BME280;7622;42.724;23.250;2023-03-01T07:43:45;95141.09;;;5.74;100.00
15050;BME280;7622;42.724;23.250;2023-03-01T07:46:12;95141.16;;;6.00;100.00
15050;BME280;7622;42.724;23.250;2023-03-01T07:48:38;95131.25;;;5.93;100.00
15050;BME280;7622;42.724;23.250;2023-03-01T07:51:07;95129.16;;;6.11;100.00
15050;BME280;7622;42.724;23.250;2023-03-01T07:53:34;95129.06;;;6.13;100.00
15050;BME280;7622;42.724;23.250;2023-03-01T07:56:03;95119.13;;;6.32;100.00
15050;BME280;7622;42.724;23.250;2023-03-01T07:58:30;95120.69;;;6.35;100.00
15050;BME280;7622;42.724;23.250;2023-03-01T08:01:00;95118.97;;;6.10;100.00
15050;BME280;7622;42.724;23.250;2023-03-01T08:03:27;95120.72;;;6.22;100.00
15050;BME280;7622;42.724;23.250;2023-03-01T08:05:54;95122.84;;;6.41;100.00
15050;BME280;7622;42.724;23.250;2023-03-01T08:08:22;95122.31;;;6.48;100.00
15050;BME280;7622;42.724;23.250;2023-03-01T08:10:49;95118.34;;;6.55;100.00
15050;BME280;7622;42.724;23.250;2023-03-01T08:13:16;95096.94;;;6.29;100.00
15050;BME280;7622;42.724;23.250;2023-03-01T08:15:47;95107.25;;;6.42;100.00
15050;BME280;7622;42.724;23.250;2023-03-01T08:18:14;95117.13;;;6.48;100.00
15050;BME280;7622;42.724;23.250;2023-03-01T08:20:41;95101.03;;;6.45;100.00
15050;BME280;7622;42.724;23.250;2023-03-01T08:23:08;95124.78;;;6.50;100.00
15050;BME280;7622;42.724;23.250;2023-03-01T08:25:36;95118.91;;;6.48;100.00
15050;BME280;7622;42.724;23.250;2023-03-01T08:28:03;95120.00;;;6.56;100.00
15050;BME280;7622;42.724;23.250;2023-03-01T08:30:31;95097.72;;;6.55;100.00
15050;BME280;7622;42.724;23.250;2023-03-01T08:32:58;95120.41;;;6.63;100.00
15050;BME280;7622;42.724;23.250;2023-03-01T08:35:24;95108.97;;;6.54;100.00
15050;BME280;7622;42.724;23.250;2023-03-01T08:37:51;95111.06;;;6.49;100.00
15050;BME280;7622;42.724;23.250;2023-03-01T08:40:18;95111.34;;;6.45;100.00
15050;BME280;7622;42.724;23.250;2023-03-01T08:42:46;95109.09;;;6.40;100.00
15050;BME280;7622;42.724;23.250;2023-03-01T08:45:13;95117.03;;;6.50;100.00
15050;BME280;7622;42.724;23.250;2023-03-01T08:47:43;95107.66;;;6.49;100.00
15050;BME280;7622;42.724;23.250;2023-03-01T08:50:10;95118.94;;;6.59;100.00
15050;BME280;7622;42.724;23.250;2023-03-01T08:52:37;95108.75;;;6.81;100.00
15050;BME280;7622;42.724;23.250;2023-03-01T08:55:05;95112.97;;;7.06;100.00
15050;BME280;7622;42.724;23.250;2023-03-01T08:57:32;95114.56;;;7.20;100.00
15050;BME280;7622;42.724;23.250;2023-03-01T09:00:00;95096.00;;;7.15;100.00
15050;BME280;7622;42.724;23.250;2023-03-01T09:02:28;95104.53;;;7.04;100.00
15050;BME280;7622;42.724;23.250;2023-03-01T09:04:55;95115.63;;;7.17;100.00
15050;BME280;7622;42.724;23.250;2023-03-01T09:07:22;95116.06;;;7.11;100.00
15050;BME280;7622;42.724;23.250;2023-03-01T09:09:53;95112.75;;;7.09;100.00
15050;BME280;7622;42.724;23.250;2023-03-01T09:12:20;95102.25;;;7.23;100.00
15050;BME280;7622;42.724;23.250;2023-03-01T09:14:47;95101.00;;;7.40;100.00
15050;BME280;7622;42.724;23.250;2023-03-01T09:17:15;95106.81;;;7.66;100.00
15050;BME280;7622;42.724;23.250;2023-03-01T09:19:42;95077.47;;;7.67;100.00
15050;BME280;7622;42.724;23.250;2023-03-01T09:22:09;95102.59;;;7.65;100.00
15050;BME280;7622;42.724;23.250;2023-03-01T09:24:36;95097.72;;;7.49;100.00
15050;BME280;7622;42.724;23.250;2023-03-01T09:27:02;95097.41;;;7.54;100.00
15050;BME280;7622;42.724;23.250;2023-03-01T09:29:34;95083.91;;;7.72;100.00
15050;BME280;7622;42.724;23.250;2023-03-01T09:32:01;95094.72;;;7.66;100.00
15050;BME280;7622;42.724;23.250;2023-03-01T09:34:29;95110.34;;;7.65;100.00
15050;BME280;7622;42.724;23.250;2023-03-01T09:36:57;95097.28;;;7.55;100.00
15050;BME280;7622;42.724;23.250;2023-03-01T09:39:25;95099.28;;;7.51;100.00
15050;BME280;7622;42.724;23.250;2023-03-01T09:41:58;95082.09;;;7.39;100.00
15050;BME280;7622;42.724;23.250;2023-03-01T09:44:35;95103.06;;;7.70;100.00
15050;BME280;7622;42.724;23.250;2023-03-01T09:47:05;95095.31;;;7.59;100.00
15050;BME280;7622;42.724;23.250;2023-03-01T09:49:35;95068.25;;;7.51;100.00
15050;BME280;7622;42.724;23.250;2023-03-01T09:52:14;95079.00;;;7.80;100.00
15050;BME280;7622;42.724;23.250;2023-03-01T09:54:46;95086.81;;;7.57;100.00
15050;BME280;7622;42.724;23.250;2023-03-01T09:57:19;95082.91;;;7.40;100.00
15050;BME280;7622;42.724;23.250;2023-03-01T10:00:00;95076.97;;;7.62;100.00
15050;BME280;7622;42.724;23.250;2023-03-01T10:02:38;95074.88;;;7.78;100.00
15050;BME280;7622;42.724;23.250;2023-03-01T10:05:18;95071.47;;;7.77;100.00
15050;BME280;7622;42.724;23.250;2023-03-01T10:07:51;95075.56;;;7.58;100.00
15050;BME280;7622;42.724;23.250;2023-03-01T10:10:29;95069.56;;;7.68;100.00
15050;BME280;7622;42.724;23.250;2023-03-01T10:13:00;95075.94;;;7.98;100.00
15050;BME280;7622;42.724;23.250;2023-03-01T10:15:34;95072.97;;;7.69;100.00
15050;BME280;7622;42.724;23.250;2023-03-01T10:18:06;95065.56;;;7.75;100.00
15050;BME280;7622;42.724;23.250;2023-03-01T10:20:43;95051.59;;;7.67;100.00
15050;BME280;7622;42.724;23.250;2023-03-01T10:23:13;95065.78;;;7.50;100.00
15050;BME280;7622;42.724;23.250;2023-03-01T10:25:50;95060.06;;;7.80;100.00
15050;BME280;7622;42.724;23.250;2023-03-01T10:28:24;95056.06;;;7.76;100.00
15050;BME280;7622;42.724;23.250;2023-03-01T10:30:52;95056.19;;;7.85;100.00
15050;BME280;7622;42.724;23.250;2023-03-01T10:33:22;95058.66;;;8.32;100.00
15050;BME280;7622;42.724;23.250;2023-03-01T10:35:51;95062.53;;;7.93;100.00
15050;BME280;7622;42.724;23.250;2023-03-01T10:38:18;95053.38;;;7.77;100.00
15050;BME280;7622;42.724;23.250;2023-03-01T10:40:54;95056.41;;;7.82;100.00
15050;BME280;7622;42.724;23.250;2023-03-01T10:43:23;95065.47;;;8.21;100.00
15050;BME280;7622;42.724;23.250;2023-03-01T10:45:50;95051.59;;;8.34;100.00
15050;BME280;7622;42.724;23.250;2023-03-01T10:48:19;95049.13;;;8.21;100.00
15050;BME280;7622;42.724;23.250;2023-03-01T10:51:03;95061.22;;;8.20;100.00
15050;BME280;7622;42.724;23.250;2023-03-01T10:53:34;95047.59;;;7.96;100.00
15050;BME280;7622;42.724;23.250;2023-03-01T10:56:03;95050.19;;;7.96;100.00
15050;BME280;7622;42.724;23.250;2023-03-01T10:58:31;95041.59;;;7.96;100.00
15050;BME280;7622;42.724;23.250;2023-03-01T11:01:00;95065.81;;;7.72;100.00
15050;BME280;7622;42.724;23.250;2023-03-01T11:03:29;95044.06;;;7.75;100.00
15050;BME280;7622;42.724;23.250;2023-03-01T11:06:00;95039.47;;;8.12;100.00
15050;BME280;7622;42.724;23.250;2023-03-01T11:08:36;95062.88;;;7.99;100.00
15050;BME280;7622;42.724;23.250;2023-03-01T11:11:07;95066.19;;;8.01;100.00
15050;BME280;7622;42.724;23.250;2023-03-01T11:13:50;95047.13;;;8.02;100.00
15050;BME280;7622;42.724;23.250;2023-03-01T11:16:24;95050.41;;;8.04;100.00
15050;BME280;7622;42.724;23.250;2023-03-01T11:19:13;95033.84;;;8.07;100.00
15050;BME280;7622;42.724;23.250;2023-03-01T11:21:49;95024.22;;;8.09;100.00
15050;BME280;7622;42.724;23.250;2023-03-01T11:24:17;95031.84;;;7.99;100.00
15050;BME280;7622;42.724;23.250;2023-03-01T11:26:50;95020.34;;;7.92;100.00
15050;BME280;7622;42.724;23.250;2023-03-01T11:29:27;95024.19;;;8.20;100.00
15050;BME280;7622;42.724;23.250;2023-03-01T11:31:57;95041.47;;;8.19;100.00
15050;BME280;7622;42.724;23.250;2023-03-01T11:34:36;95036.78;;;8.13;100.00
15050;BME280;7622;42.724;23.250;2023-03-01T11:37:13;95042.88;;;8.12;100.00
15050;BME280;7622;42.724;23.250;2023-03-01T11:39:47;95022.56;;;7.97;100.00
15050;BME280;7622;42.724;23.250;2023-03-01T11:42:20;95010.91;;;8.02;100.00
15050;BME280;7622;42.724;23.250;2023-03-01T11:44:55;95001.63;;;7.88;100.00
15050;BME280;7622;42.724;23.250;2023-03-01T11:47:49;95017.72;;;8.03;100.00
15050;BME280;7622;42.724;23.250;2023-03-01T11:50:28;94994.00;;;7.87;100.00
15050;BME280;7622;42.724;23.250;2023-03-01T11:53:29;94988.47;;;7.69;100.00
15050;BME280;7622;42.724;23.250;2023-03-01T11:56:16;94994.72;;;7.78;100.00
15050;BME280;7622;42.724;23.250;2023-03-01T11:58:58;94995.84;;;8.18;100.00
15050;BME280;7622;42.724;23.250;2023-03-01T12:01:40;94995.38;;;8.13;100.00
15050;BME280;7622;42.724;23.250;2023-03-01T12:04:36;95000.00;;;7.76;100.00
15050;BME280;7622;42.724;23.250;2023-03-01T12:07:15;95001.06;;;7.74;100.00
15050;BME280;7622;42.724;23.250;2023-03-01T12:09:58;94986.97;;;7.78;100.00
15050;BME280;7622;42.724;23.250;2023-03-01T12:12:42;94980.47;;;7.83;100.00
15050;BME280;7622;42.724;23.250;2023-03-01T12:18:27;94984.09;;;8.14;100.00
15050;BME280;7622;42.724;23.250;2023-03-01T12:21:03;94979.63;;;8.05;100.00
15050;BME280;7622;42.724;23.250;2023-03-01T12:23:53;94974.53;;;8.37;100.00
15050;BME280;7622;42.724;23.250;2023-03-01T12:26:30;94979.50;;;8.61;100.00
15050;BME280;7622;42.724;23.250;2023-03-01T12:29:18;94977.88;;;8.60;100.00
15050;BME280;7622;42.724;23.250;2023-03-01T12:32:04;94974.53;;;8.37;100.00
15050;BME280;7622;42.724;23.250;2023-03-01T12:35:01;94956.03;;;8.74;100.00
15050;BME280;7622;42.724;23.250;2023-03-01T12:40:37;94953.13;;;8.67;100.00
15050;BME280;7622;42.724;23.250;2023-03-01T12:43:27;94957.38;;;8.89;100.00
15050;BME280;7622;42.724;23.250;2023-03-01T12:46:10;94971.78;;;9.02;100.00
15050;BME280;7622;42.724;23.250;2023-03-01T12:48:46;94969.19;;;8.82;100.00
15050;BME280;7622;42.724;23.250;2023-03-01T12:51:16;94964.56;;;9.06;100.00
15050;BME280;7622;42.724;23.250;2023-03-01T12:53:47;94962.38;;;9.01;100.00
15050;BME280;7622;42.724;23.250;2023-03-01T12:56:16;94968.59;;;8.78;100.00
15050;BME280;7622;42.724;23.250;2023-03-01T12:58:53;94969.63;;;9.07;100.00
15050;BME280;7622;42.724;23.250;2023-03-01T13:01:33;94963.63;;;8.86;100.00
15050;BME280;7622;42.724;23.250;2023-03-01T13:04:24;94964.31;;;8.88;100.00
15050;BME280;7622;42.724;23.250;2023-03-01T13:07:13;94956.63;;;8.77;100.00
15050;BME280;7622;42.724;23.250;2023-03-01T13:09:49;94964.84;;;9.03;100.00
15050;BME280;7622;42.724;23.250;2023-03-01T13:12:44;94967.91;;;8.76;100.00
15050;BME280;7622;42.724;23.250;2023-03-01T13:15:32;94964.50;;;8.44;100.00
15050;BME280;7622;42.724;23.250;2023-03-01T13:18:00;94973.91;;;8.45;100.00
15050;BME280;7622;42.724;23.250;2023-03-01T13:20:30;94967.16;;;8.21;100.00
15050;BME280;7622;42.724;23.250;2023-03-01T13:23:07;94964.44;;;8.12;100.00